Time;durP1;ratioP1;P1;durP2;ratioP2;P2;SDS_P1;SDS_P2;PMS_P1;PMS_P2;Temp;Humidity;BMP_temperature;BMP_pressure;BME280_temperature;BME280_humidity;BME280_pressure;Samples;Min_cycle;Max_cycle;Signal;HPM_P1;HPM_P2
2022/07/04 00:02:18;;;;;;;;;4.50;1.50;;;;;20.36;46.94;101750.69;5098228;27;45453;-67
2022/07/04 00:04:43;;;;;;;;;2.00;2.00;;;;;20.33;47.19;101753.75;5098207;27;45314;-64
2022/07/04 00:07:09;;;;;;;;;2.00;2.00;;;;;20.27;47.14;101759.06;5098448;27;45362;-70
2022/07/04 00:09:34;;;;;;;;;4.00;1.50;;;;;20.21;47.00;101762.53;5097878;27;46151;-70
2022/07/04 00:11:59;;;;;;;;;3.00;2.00;;;;;20.21;47.18;101773.31;5097475;27;45361;-67
2022/07/04 00:14:25;;;;;;;;;2.75;1.25;;;;;20.18;47.28;101775.38;5097978;27;45419;-69
2022/07/04 00:16:50;;;;;;;;;3.00;1.00;;;;;20.07;46.84;101767.72;5098127;27;45390;-67
2022/07/04 00:19:16;;;;;;;;;2.00;1.00;;;;;20.10;46.94;101770.06;5097726;27;46740;-68
2022/07/04 00:21:41;;;;;;;;;2.00;2.00;;;;;20.05;47.05;101772.47;5096297;27;45390;-69
2022/07/04 00:24:06;;;;;;;;;3.50;2.00;;;;;20.02;46.17;101772.00;5097980;27;45325;-70
2022/07/04 00:26:32;;;;;;;;;2.00;0.75;;;;;19.94;46.86;101767.53;5097825;27;45399;-66
2022/07/04 00:28:57;;;;;;;;;1.00;1.00;;;;;19.93;46.84;101771.22;5097075;27;45343;-64
2022/07/04 00:31:22;;;;;;;;;3.50;2.75;;;;;19.90;47.17;101768.91;5097372;27;45335;-69
2022/07/04 00:33:48;;;;;;;;;4.75;3.25;;;;;19.87;47.24;101771.97;5097652;27;45393;-69
2022/07/04 00:36:13;;;;;;;;;4.50;4.50;;;;;19.84;47.34;101778.56;5097858;27;45413;-69
2022/07/04 00:38:38;;;;;;;;;3.50;3.00;;;;;19.82;47.30;101777.91;5097231;27;45957;-67
2022/07/04 00:41:04;;;;;;;;;2.50;2.50;;;;;19.72;47.58;101771.09;5097320;27;45383;-67
2022/07/04 00:43:30;;;;;;;;;2.75;2.25;;;;;19.73;47.47;101783.59;5097222;27;45403;-70
2022/07/04 00:45:55;;;;;;;;;4.50;4.50;;;;;19.74;47.46;101782.56;5097536;27;45857;-70
2022/07/04 00:48:21;;;;;;;;;3.00;2.50;;;;;19.70;47.81;101779.38;5097286;27;46109;-69
2022/07/04 00:50:47;;;;;;;;;4.00;3.50;;;;;19.68;47.87;101782.25;5097214;27;45479;-61
2022/07/04 00:53:20;;;;;;;;;2.75;2.00;;;;;19.66;47.83;101778.91;5095750;27;45379;-67
2022/07/04 00:55:46;;;;;;;;;4.00;3.00;;;;;19.64;47.62;101786.34;5097325;27;45480;-69
2022/07/04 00:58:13;;;;;;;;;2.50;2.50;;;;;19.61;47.92;101778.59;5097150;27;46153;-70
2022/07/04 01:00:38;;;;;;;;;3.00;3.00;;;;;19.62;47.99;101774.88;5097058;27;45433;-69
2022/07/04 01:03:04;;;;;;;;;4.00;3.00;;;;;19.52;47.77;101751.84;5096989;27;45496;-68
2022/07/04 01:05:29;;;;;;;;;2.50;2.50;;;;;19.57;48.05;101761.06;5097451;27;45405;-65
2022/07/04 01:07:56;;;;;;;;;2.75;2.00;;;;;19.49;47.98;101758.41;5096952;27;45912;-68
2022/07/04 01:10:22;;;;;;;;;3.00;3.00;;;;;19.56;48.13;101775.56;5096886;27;45465;-62
2022/07/04 01:12:47;;;;;;;;;2.25;2.25;;;;;19.53;48.25;101781.34;5096891;27;46331;-66
2022/07/04 01:15:12;;;;;;;;;2.50;2.50;;;;;19.52;47.77;101779.66;5097106;27;45303;-68
2022/07/04 01:17:38;;;;;;;;;2.50;1.00;;;;;19.48;48.08;101780.19;5096613;27;45412;-66
2022/07/04 01:20:04;;;;;;;;;2.25;2.25;;;;;19.41;48.23;101772.81;5097004;27;45334;-62
2022/07/04 01:22:30;;;;;;;;;2.00;2.00;;;;;19.42;48.23;101788.00;5096713;27;45485;-64
2022/07/04 01:24:55;;;;;;;;;1.00;1.00;;;;;19.42;48.42;101792.53;5096196;27;45385;-69
2022/07/04 01:27:20;;;;;;;;;4.00;2.25;;;;;19.40;48.31;101787.31;5096619;27;46413;-58
2022/07/04 01:29:46;;;;;;;;;2.25;2.25;;;;;19.40;48.37;101786.50;5096404;27;45378;-62
2022/07/04 01:32:11;;;;;;;;;2.00;2.00;;;;;19.37;48.34;101782.28;5096957;27;45330;-63
2022/07/04 01:34:38;;;;;;;;;3.25;2.75;;;;;19.37;48.38;101786.84;5096867;27;45379;-65
2022/07/04 01:37:04;;;;;;;;;2.75;2.00;;;;;19.35;48.51;101784.34;5096466;27;46092;-55
2022/07/04 01:39:29;;;;;;;;;2.25;2.00;;;;;19.34;48.28;101784.50;5096716;27;45358;-68
2022/07/04 01:41:55;;;;;;;;;2.00;2.00;;;;;19.26;48.31;101773.78;5096594;27;45860;-67
2022/07/04 01:44:21;;;;;;;;;4.00;2.00;;;;;19.29;48.35;101774.25;5096632;27;45253;-69
2022/07/04 01:46:47;;;;;;;;;1.75;1.75;;;;;19.25;48.22;101772.91;5096388;27;46084;-55
2022/07/04 01:49:12;;;;;;;;;1.50;1.50;;;;;19.25;48.05;101775.63;5096326;27;45405;-63
2022/07/04 01:51:45;;;;;;;;;1.00;1.00;;;;;19.22;48.10;101778.69;5096430;27;45359;-69
2022/07/04 01:54:11;;;;;;;;;1.00;1.00;;;;;19.20;47.76;101770.75;5096539;27;45244;-66
2022/07/04 01:56:36;;;;;;;;;0.00;0.00;;;;;19.16;48.06;101766.75;5096344;27;45831;-66
2022/07/04 01:59:03;;;;;;;;;1.25;1.25;;;;;19.13;47.94;101766.25;5096185;27;45220;-68
2022/07/04 02:01:29;;;;;;;;;1.25;0.75;;;;;19.05;48.14;101756.38;5096365;27;45442;-69
2022/07/04 02:03:54;;;;;;;;;2.50;1.00;;;;;19.09;48.28;101762.25;5096161;27;45383;-66
2022/07/04 02:06:20;;;;;;;;;1.00;1.00;;;;;19.09;48.27;101768.50;5096229;27;46150;-61
2022/07/04 02:13:00;;;;;;;;;2.00;0.50;;;;;19.02;48.54;101762.13;5109781;27;45370;-61
2022/07/04 02:14:14;;;;;;;;;1.00;0.00;;;;;19.03;48.53;101762.94;5094945;27;45484;-53
2022/07/04 02:16:40;;;;;;;;;0.00;0.00;;;;;19.02;48.67;101772.06;5096196;27;46162;-67
2022/07/04 02:19:05;;;;;;;;;1.25;0.00;;;;;19.01;48.75;101765.00;5095968;27;45375;-67
2022/07/04 02:21:30;;;;;;;;;0.50;0.00;;;;;19.00;48.74;101768.69;5096105;27;45452;-68
2022/07/04 02:23:56;;;;;;;;;0.00;0.00;;;;;18.98;48.68;101773.44;5096341;27;45341;-68
2022/07/04 02:26:22;;;;;;;;;1.75;1.00;;;;;18.90;48.80;101767.06;5095769;27;45547;-53
2022/07/04 02:28:47;;;;;;;;;0.75;0.00;;;;;18.93;48.79;101771.28;5096117;27;45497;-66
2022/07/04 02:31:12;;;;;;;;;1.00;1.00;;;;;18.89;48.54;101760.00;5095702;27;45448;-64
2022/07/04 02:33:37;;;;;;;;;0.75;0.00;;;;;18.90;48.60;101761.66;5096253;27;45231;-61
2022/07/04 02:36:03;;;;;;;;;0.50;0.50;;;;;18.91;48.93;101767.91;5097888;27;46638;-59
2022/07/04 02:38:29;;;;;;;;;0.00;0.00;;;;;18.89;48.81;101769.94;5099384;27;45260;-56
2022/07/04 02:40:54;;;;;;;;;3.00;1.50;;;;;18.88;49.11;101770.97;5098162;27;45684;-50
2022/07/04 02:43:19;;;;;;;;;0.25;0.25;;;;;18.85;49.11;101774.84;5099704;27;45484;-67
2022/07/04 02:45:45;;;;;;;;;2.00;0.00;;;;;18.80;49.28;101771.00;5099166;27;45745;-64
2022/07/04 02:48:10;;;;;;;;;0.00;0.00;;;;;18.71;49.22;101762.13;5099131;27;45475;-58
2022/07/04 02:50:36;;;;;;;;;0.00;0.00;;;;;18.77;49.00;101774.03;5099459;27;45325;-50
2022/07/04 02:53:01;;;;;;;;;1.00;1.00;;;;;18.79;49.36;101778.22;5099512;27;45473;-69
2022/07/04 02:55:26;;;;;;;;;1.67;0.67;;;;;18.77;49.16;101784.81;5098956;27;46286;-49
2022/07/04 02:57:52;;;;;;;;;1.00;1.00;;;;;18.75;49.44;101781.44;5099116;27;45204;-58
2022/07/04 03:00:17;;;;;;;;;0.00;0.00;;;;;18.60;49.42;101766.00;5099111;27;45437;-66
2022/07/04 03:02:42;;;;;;;;;2.00;0.67;;;;;18.73;49.60;101786.19;5099361;27;45390;-50
2022/07/04 03:05:08;;;;;;;;;0.50;0.00;;;;;18.72;49.60;101789.91;5098786;27;46998;-68
2022/07/04 03:07:33;;;;;;;;;3.00;0.00;;;;;18.69;49.84;101788.34;5098750;27;45390;-49
2022/07/04 03:09:58;;;;;;;;;1.00;1.00;;;;;18.66;50.00;101781.44;5098822;27;45369;-65
2022/07/04 03:12:24;;;;;;;;;0.00;0.00;;;;;18.64;50.02;101785.34;5099057;27;45471;-65
2022/07/04 03:14:49;;;;;;;;;1.00;1.00;;;;;18.62;50.05;101793.59;5098551;27;46434;-63
2022/07/04 03:17:14;;;;;;;;;0.00;0.00;;;;;18.56;49.97;101788.91;5098665;27;45366;-54
2022/07/04 03:19:40;;;;;;;;;1.33;0.00;;;;;18.43;50.30;101769.75;5098952;27;45344;-62
2022/07/04 03:22:05;;;;;;;;;1.00;1.00;;;;;18.55;49.79;101795.31;5098771;27;45370;-61
2022/07/04 03:24:31;;;;;;;;;0.00;0.00;;;;;18.55;50.31;101800.72;5098477;27;45952;-63
2022/07/04 03:26:56;;;;;;;;;2.00;0.33;;;;;18.54;50.38;101790.09;5098652;27;46009;-59
2022/07/04 03:29:21;;;;;;;;;2.00;2.00;;;;;18.54;50.27;101799.03;5098540;27;45311;-55
2022/07/04 03:31:47;;;;;;;;;1.00;1.00;;;;;18.52;50.37;101790.28;5098787;27;45256;-68
2022/07/04 03:34:12;;;;;;;;;1.67;0.00;;;;;18.50;50.52;101786.94;5098500;27;45684;-57
2022/07/04 03:36:37;;;;;;;;;1.33;1.00;;;;;18.52;50.31;101802.91;5098470;27;45310;-51
2022/07/04 03:39:03;;;;;;;;;0.67;0.00;;;;;18.52;50.59;101802.91;5098612;27;45617;-60
2022/07/04 03:41:28;;;;;;;;;2.67;1.00;;;;;18.51;50.47;101794.00;5098834;27;45445;-62
2022/07/04 03:43:54;;;;;;;;;0.67;0.00;;;;;18.41;50.68;101771.78;5098110;27;46105;-62
2022/07/04 03:46:19;;;;;;;;;0.00;0.00;;;;;18.51;50.64;101794.00;5098096;27;45390;-62
2022/07/04 03:48:44;;;;;;;;;0.33;0.00;;;;;18.49;50.91;101790.59;5098052;27;45568;-67
2022/07/04 03:51:12;;;;;;;;;1.00;1.00;;;;;18.38;50.64;101772.97;5098582;27;45303;-57
2022/07/04 03:53:37;;;;;;;;;0.00;0.00;;;;;18.48;50.73;101777.31;5098055;27;47186;-56
2022/07/04 03:56:03;;;;;;;;;1.00;1.00;;;;;18.36;50.78;101757.97;5098200;27;45469;-46
2022/07/04 03:58:28;;;;;;;;;1.00;1.00;;;;;18.50;50.72;101786.06;5098126;27;45398;-63
2022/07/04 04:00:53;;;;;;;;;1.00;1.00;;;;;18.44;50.63;101776.81;5098292;27;45415;-48
2022/07/04 04:06:03;;;;;;;;;0.67;0.67;;;;;18.43;50.80;101791.31;5098077;27;45410;-62
2022/07/04 04:08:29;;;;;;;;;1.00;1.00;;;;;18.44;51.16;101793.00;5097918;27;45437;-64
2022/07/04 04:10:54;;;;;;;;;1.00;1.00;;;;;18.42;50.87;101798.56;5098411;27;45396;-48
2022/07/04 04:13:20;;;;;;;;;0.00;0.00;;;;;18.40;51.27;101792.50;5097754;27;47325;-48
2022/07/04 04:15:45;;;;;;;;;1.00;1.00;;;;;18.40;51.37;101805.13;5097872;27;45375;-46
2022/07/04 04:18:10;;;;;;;;;2.00;1.00;;;;;18.40;51.42;101810.50;5098080;27;45416;-51
2022/07/04 04:20:36;;;;;;;;;1.00;1.00;;;;;18.40;51.42;101813.19;5098047;27;45579;-57
2022/07/04 04:23:01;;;;;;;;;1.33;1.33;;;;;18.40;51.42;101813.19;5097520;27;46012;-51
2022/07/04 04:25:27;;;;;;;;;0.00;0.00;;;;;18.39;51.31;101814.22;5097619;27;45395;-48
2022/07/04 04:27:52;;;;;;;;;0.00;0.00;;;;;18.38;51.45;101818.78;5097912;27;45478;-48
2022/07/04 04:30:17;;;;;;;;;2.67;1.00;;;;;18.38;51.39;101821.47;5097668;27;45446;-68
2022/07/04 04:32:43;;;;;;;;;1.67;1.33;;;;;18.33;51.26;101812.19;5097474;27;47189;-46
2022/07/04 04:35:08;;;;;;;;;2.00;0.00;;;;;18.37;51.25;101818.94;5097427;27;45410;-52
2022/07/04 04:37:34;;;;;;;;;1.00;1.00;;;;;18.29;51.49;101805.50;5097602;27;45529;-52
2022/07/04 04:39:59;;;;;;;;;2.00;0.33;;;;;18.36;51.83;101817.25;5097581;27;45286;-53
2022/07/04 04:42:24;;;;;;;;;1.00;1.00;;;;;18.37;51.75;101813.53;5097203;27;45267;-68
2022/07/04 04:44:50;;;;;;;;;0.00;0.00;;;;;18.31;51.99;101807.00;5097566;27;45428;-65
2022/07/04 04:47:15;;;;;;;;;0.33;0.00;;;;;18.38;51.92;101820.63;5097658;27;46050;-56
2022/07/04 04:49:41;;;;;;;;;2.00;1.00;;;;;18.26;52.05;101803.97;5097836;27;45705;-65
2022/07/04 04:52:06;;;;;;;;;0.67;0.67;;;;;18.39;51.84;101822.31;5097064;27;46922;-64
2022/07/04 04:54:35;;;;;;;;;2.00;2.00;;;;;18.38;51.85;101816.09;5097438;27;45362;-66
2022/07/04 04:57:00;;;;;;;;;1.00;1.00;;;;;18.33;52.11;101806.81;5097442;27;45363;-67
2022/07/04 04:59:29;;;;;;;;;4.67;1.00;;;;;18.39;52.28;101815.06;5096526;27;45398;-58
2022/07/04 05:01:54;;;;;;;;;1.00;1.00;;;;;18.41;52.52;101817.56;5095838;27;48109;-65
2022/07/04 05:04:20;;;;;;;;;2.67;2.67;;;;;18.33;52.57;101793.34;5096972;27;45370;-61
2022/07/04 05:06:45;;;;;;;;;1.67;1.33;;;;;18.42;52.07;101811.19;5097247;27;45729;-56
2022/07/04 05:09:11;;;;;;;;;3.67;1.00;;;;;18.44;52.51;101819.94;5097443;27;45925;-66
2022/07/04 05:11:36;;;;;;;;;2.00;2.00;;;;;18.44;52.25;101819.94;5097048;27;46059;-54
2022/07/04 05:14:02;;;;;;;;;1.00;1.00;;;;;18.45;52.50;101808.97;5096819;27;45384;-65
2022/07/04 05:16:27;;;;;;;;;2.33;1.00;;;;;18.44;51.94;101814.53;5095265;27;45383;-65
2022/07/04 05:18:53;;;;;;;;;3.00;1.00;;;;;18.42;52.24;101808.50;5097053;27;45426;-62
2022/07/04 05:21:18;;;;;;;;;2.00;2.00;;;;;18.44;52.51;101818.06;5096537;27;47034;-55
2022/07/04 05:23:43;;;;;;;;;3.00;1.67;;;;;18.47;52.02;101826.84;5096736;27;45307;-58
2022/07/04 05:26:09;;;;;;;;;3.33;2.00;;;;;18.42;52.42;101812.03;5097092;27;45396;-56
2022/07/04 05:28:34;;;;;;;;;3.67;2.00;;;;;18.48;52.35;101821.28;5096870;27;45458;-62
2022/07/04 05:30:59;;;;;;;;;3.00;2.00;;;;;18.49;52.48;101812.16;5096315;27;45464;-66
2022/07/04 05:33:25;;;;;;;;;1.00;1.00;;;;;18.51;52.59;101815.53;5096353;27;45481;-67
2022/07/04 05:35:50;;;;;;;;;6.00;3.00;;;;;18.52;52.28;101811.81;5096829;27;45330;-62
2022/07/04 05:38:16;;;;;;;;;3.00;3.00;;;;;18.42;52.72;101795.88;5096788;27;45468;-69
2022/07/04 05:40:41;;;;;;;;;5.00;2.00;;;;;18.59;52.48;101820.91;5096515;27;46764;-69
2022/07/04 05:43:06;;;;;;;;;4.00;3.00;;;;;18.59;52.34;101817.38;5094582;27;45788;-66
2022/07/04 05:45:32;;;;;;;;;6.00;4.00;;;;;18.61;52.33;101818.88;5096520;27;45358;-59
2022/07/04 05:47:57;;;;;;;;;5.00;3.00;;;;;18.64;52.25;101820.38;5096539;27;45558;-63
2022/07/04 05:50:22;;;;;;;;;2.00;2.00;;;;;18.70;52.47;101820.53;5096225;27;46110;-66
2022/07/04 05:52:48;;;;;;;;;2.00;2.00;;;;;18.76;52.32;101818.19;5096392;27;45256;-70
2022/07/04 05:55:14;;;;;;;;;4.00;4.00;;;;;18.78;51.97;101825.06;5095108;27;45411;-57
2022/07/04 05:57:40;;;;;;;;;4.00;3.00;;;;;18.80;51.94;101816.84;5096375;27;45388;-61
2022/07/04 06:00:06;;;;;;;;;4.67;3.00;;;;;18.76;52.37;101810.94;5094525;27;47792;-64
2022/07/04 06:02:31;;;;;;;;;2.33;2.00;;;;;18.85;52.03;101825.22;5095844;27;45346;-66
2022/07/04 06:04:57;;;;;;;;;4.00;3.00;;;;;18.88;51.87;101816.81;5096111;27;45349;-58
2022/07/04 06:07:22;;;;;;;;;4.00;2.00;;;;;18.97;51.97;101831.94;5096516;27;45290;-66
2022/07/04 06:09:47;;;;;;;;;3.00;3.00;;;;;18.92;52.10;101813.56;5095450;27;45398;-63
2022/07/04 06:12:13;;;;;;;;;4.00;3.00;;;;;19.05;51.80;101837.28;5099743;27;45336;-60
2022/07/04 06:14:38;;;;;;;;;4.00;4.00;;;;;19.11;51.44;101822.25;5099880;27;45409;-56
2022/07/04 06:17:04;;;;;;;;;4.00;2.00;;;;;19.16;51.26;101826.06;5115740;27;45390;-66
2022/07/04 06:19:29;;;;;;;;;7.33;2.00;;;;;19.22;51.35;101827.25;5099632;27;45475;-66
2022/07/04 06:21:54;;;;;;;;;2.00;2.00;;;;;19.29;51.26;101836.28;5099532;27;45393;-65
2022/07/04 06:24:20;;;;;;;;;2.00;2.00;;;;;19.36;51.04;101829.19;5099761;27;45808;-63
2022/07/04 06:26:45;;;;;;;;;2.00;2.00;;;;;19.06;50.60;101774.22;5099690;27;45311;-66
2022/07/04 06:29:10;;;;;;;;;2.00;0.33;;;;;19.49;50.46;101833.97;5099464;27;45372;-63
2022/07/04 06:31:36;;;;;;;;;2.00;1.33;;;;;19.56;50.27;101834.13;5098991;27;45275;-65
2022/07/04 06:36:45;;;;;;;;;2.00;2.00;;;;;19.85;49.76;101823.47;5099871;27;45401;-69
2022/07/04 06:39:11;;;;;;;;;3.00;2.00;;;;;20.07;49.36;101827.16;5099247;27;46193;-65
2022/07/04 06:41:37;;;;;;;;;6.00;3.33;;;;;20.33;48.49;101824.03;5099171;27;45452;-68
2022/07/04 06:44:03;;;;;;;;;3.75;2.00;;;;;20.73;48.34;101830.06;5099435;27;45346;-49
2022/07/04 06:46:28;;;;;;;;;4.00;3.00;;;;;21.29;46.91;101827.63;5099201;27;45459;-72
2022/07/04 06:48:54;;;;;;;;;2.75;1.00;;;;;21.99;45.41;101831.44;5099017;27;46650;-68
2022/07/04 06:51:19;;;;;;;;;2.00;2.00;;;;;22.75;43.81;101822.59;5099366;27;45154;-62
2022/07/04 06:53:45;;;;;;;;;1.75;1.75;;;;;23.45;42.69;101815.16;5099420;27;45271;-58
2022/07/04 06:56:11;;;;;;;;;3.25;1.50;;;;;24.17;41.05;101813.56;5099609;27;45322;-70
2022/07/04 06:58:36;;;;;;;;;3.00;1.50;;;;;24.96;39.59;101828.88;5099015;27;46247;-64
2022/07/04 07:01:02;;;;;;;;;4.25;2.50;;;;;25.67;38.80;101826.00;5098998;27;45311;-67
2022/07/04 07:03:28;;;;;;;;;1.25;0.75;;;;;26.29;37.31;101837.03;5099002;27;45409;-62
2022/07/04 07:05:56;;;;;;;;;3.00;1.60;;;;;26.86;35.55;101835.81;5099171;27;45417;-59
2022/07/04 07:08:22;;;;;;;;;3.20;2.00;;;;;27.47;34.48;101836.69;5098725;27;46221;-54
2022/07/04 07:10:47;;;;;;;;;1.75;1.50;;;;;28.10;33.84;101835.31;5098866;27;45348;-65
2022/07/04 07:13:13;;;;;;;;;2.25;2.00;;;;;28.59;35.18;101828.53;5098729;27;45864;-61
2022/07/04 07:15:39;;;;;;;;;2.20;2.20;;;;;28.93;30.71;101830.59;5098855;27;45488;-66
2022/07/04 07:18:04;;;;;;;;;5.00;2.00;;;;;29.37;31.16;101837.28;5098369;27;46281;-68
2022/07/04 07:20:30;;;;;;;;;2.75;1.25;;;;;30.29;31.15;101839.66;5098586;27;45362;-59
2022/07/04 07:22:56;;;;;;;;;2.50;2.00;;;;;32.05;27.58;101828.47;5097658;27;45389;-66
2022/07/04 07:25:21;;;;;;;;;2.50;0.75;;;;;33.94;25.55;101835.50;5098881;27;45406;-63
2022/07/04 07:27:46;;;;;;;;;2.75;2.75;;;;;35.38;22.65;101830.31;5098891;27;45704;-62
2022/07/04 07:30:12;;;;;;;;;4.25;1.00;;;;;36.78;22.01;101827.59;5098224;27;45297;-62
2022/07/04 07:32:37;;;;;;;;;4.00;2.25;;;;;38.09;21.22;101825.03;5098611;27;45351;-60
2022/07/04 07:35:03;;;;;;;;;1.50;1.50;;;;;38.99;19.84;101823.50;5098693;27;45477;-67
2022/07/04 07:37:28;;;;;;;;;1.75;1.75;;;;;39.92;18.54;101820.13;5098210;27;46345;-63
2022/07/04 07:39:54;;;;;;;;;3.00;3.00;;;;;40.65;17.86;101815.03;5098697;27;45331;-50
2022/07/04 07:42:19;;;;;;;;;2.75;1.00;;;;;41.35;17.14;101815.94;5098663;27;45433;-66
2022/07/04 07:44:46;;;;;;;;;2.50;1.50;;;;;42.06;17.02;101816.28;5098603;27;45331;-65
2022/07/04 07:47:13;;;;;;;;;2.60;1.00;;;;;42.52;15.94;101813.75;5098108;27;45315;-49
2022/07/04 07:49:38;;;;;;;;;1.80;1.80;;;;;42.87;15.99;101811.59;5098464;27;45425;-63
2022/07/04 07:52:04;;;;;;;;;1.50;1.50;;;;;43.35;15.24;101805.41;5098511;27;45402;-65
2022/07/04 07:54:29;;;;;;;;;3.00;2.00;;;;;43.77;14.65;101812.91;5098377;27;45218;-66
2022/07/04 07:56:55;;;;;;;;;2.00;2.00;;;;;44.02;15.18;101796.97;5098033;27;46085;-63
2022/07/04 07:59:20;;;;;;;;;1.75;1.75;;;;;44.43;14.55;101800.75;5098282;27;45338;-61
2022/07/04 08:01:45;;;;;;;;;3.00;1.75;;;;;44.51;13.95;101809.03;5098260;27;45296;-59
2022/07/04 08:06:55;;;;;;;;;2.00;2.00;;;;;41.60;15.87;101812.31;5097876;27;45933;-52
2022/07/04 08:09:20;;;;;;;;;0.25;0.25;;;;;42.47;16.04;101805.56;5098117;27;45422;-61
2022/07/04 08:11:46;;;;;;;;;2.00;2.00;;;;;43.49;14.71;101807.13;5098250;27;45280;-66
2022/07/04 08:14:12;;;;;;;;;1.00;1.00;;;;;44.48;15.21;101803.31;5098347;27;45381;-64
2022/07/04 08:16:37;;;;;;;;;5.00;2.00;;;;;45.18;13.59;101808.69;5097571;27;46573;-62
2022/07/04 08:19:03;;;;;;;;;2.75;1.75;;;;;45.62;12.75;101801.06;5096342;27;45436;-68
2022/07/04 08:21:28;;;;;;;;;2.75;2.00;;;;;45.95;13.45;101800.75;5097760;27;45370;-62
2022/07/04 08:23:54;;;;;;;;;3.25;2.75;;;;;46.39;13.20;101799.81;5098004;27;45350;-62
2022/07/04 08:26:19;;;;;;;;;4.75;4.00;;;;;46.76;12.84;101803.09;5097550;27;46271;-65
2022/07/04 08:28:45;;;;;;;;;3.50;2.00;;;;;47.34;12.22;101803.13;5097344;27;45507;-63
2022/07/04 08:31:10;;;;;;;;;3.75;2.25;;;;;47.13;11.84;101803.50;5097709;27;45397;-66
2022/07/04 08:33:35;;;;;;;;;1.25;1.25;;;;;47.64;12.10;101805.28;5096156;27;45341;-61
2022/07/04 08:36:01;;;;;;;;;2.00;2.00;;;;;48.06;11.81;101802.41;5097419;27;46285;-58
2022/07/04 08:38:27;;;;;;;;;2.75;2.00;;;;;48.29;11.55;101791.06;5097381;27;45332;-57
2022/07/04 08:40:57;;;;;;;;;4.50;2.75;;;;;48.64;11.66;101796.44;5097567;27;45332;-53
2022/07/04 08:43:24;;;;;;;;;2.20;2.00;;;;;48.90;10.53;101789.13;5098205;27;45873;-53
2022/07/04 08:45:53;;;;;;;;;4.80;1.20;;;;;49.16;10.43;101789.03;5097598;27;46254;-53
2022/07/04 08:48:25;;;;;;;;;2.40;1.40;;;;;49.61;10.43;101783.47;5097621;27;45458;-49
2022/07/04 08:50:59;;;;;;;;;1.60;1.60;;;;;49.75;10.60;101780.75;5097631;27;45453;-47
2022/07/04 08:53:29;;;;;;;;;3.40;1.20;;;;;49.89;10.06;101782.91;5097410;27;45276;-64
2022/07/04 08:58:42;;;;;;;;;2.20;2.20;;;;;49.72;10.85;101780.72;5097232;27;45348;-47
2022/07/04 09:01:16;;;;;;;;;1.80;1.80;;;;;49.51;10.23;101779.31;5097096;27;45394;-60
2022/07/04 09:03:44;;;;;;;;;4.00;2.60;;;;;49.74;10.42;101776.31;5097106;27;45411;-57
2022/07/04 09:06:11;;;;;;;;;2.60;1.80;;;;;49.96;10.49;101779.31;5095486;27;46919;-48
2022/07/04 09:08:38;;;;;;;;;3.20;1.40;;;;;50.07;11.32;101777.41;5097088;27;45327;-57
2022/07/04 09:11:04;;;;;;;;;0.20;0.20;;;;;49.92;10.10;101770.81;5096954;27;45305;-68
2022/07/04 09:13:31;;;;;;;;;2.00;1.00;;;;;49.87;10.30;101769.16;5096856;27;45512;-48
2022/07/04 09:15:56;;;;;;;;;1.20;0.40;;;;;49.56;9.99;101769.66;5096721;27;45984;-60
2022/07/04 09:18:33;;;;;;;;;1.00;1.00;;;;;49.65;10.93;101762.50;5096811;27;45525;-55
2022/07/04 09:21:01;;;;;;;;;1.80;1.80;;;;;49.80;10.73;101765.44;5096995;27;45344;-59
2022/07/04 09:23:32;;;;;;;;;2.80;2.00;;;;;49.92;10.50;101765.97;5096979;27;45457;-52
2022/07/04 09:26:09;;;;;;;;;1.00;1.00;;;;;49.78;10.02;101765.84;5096708;27;45666;-53
2022/07/04 09:28:35;;;;;;;;;0.40;0.40;;;;;50.24;10.42;101764.59;5096765;27;45354;-49
2022/07/04 09:31:01;;;;;;;;;1.40;1.20;;;;;50.48;9.03;101763.06;5096595;27;45418;-54
2022/07/04 09:33:57;;;;;;;;;3.75;2.00;;;;;50.74;9.54;101765.66;5096752;27;45377;-56
2022/07/04 09:36:25;;;;;;;;;2.40;2.00;;;;;50.90;10.02;101759.66;5096523;27;47207;-57
2022/07/04 09:39:15;;;;;;;;;2.60;2.60;;;;;50.63;9.53;101759.13;5096736;27;45405;-50
2022/07/04 09:42:02;;;;;;;;;2.20;0.60;;;;;50.74;9.90;101757.16;5053487;28;45491;-52
2022/07/04 09:44:46;;;;;;;;;2.00;2.00;;;;;50.85;9.32;101749.50;5053035;28;45397;-50
2022/07/04 09:47:27;;;;;;;;;4.00;2.40;;;;;50.84;9.38;101756.38;5053249;28;45419;-48
2022/07/04 09:49:58;;;;;;;;;2.60;2.60;;;;;51.11;9.16;101759.69;5053410;28;45339;-52
2022/07/04 09:52:23;;;;;;;;;5.00;1.80;;;;;51.43;9.33;101753.28;5053585;28;45413;-50
2022/07/04 09:54:49;;;;;;;;;1.75;1.75;;;;;51.57;8.75;101761.81;5053653;28;45431;-54
2022/07/04 09:57:22;;;;;;;;;0.50;0.50;;;;;51.29;8.51;101762.63;5053386;28;46298;-47
2022/07/04 09:59:47;;;;;;;;;0.20;0.20;;;;;51.32;9.04;101763.81;5053120;28;45365;-55
2022/07/04 10:02:16;;;;;;;;;2.00;1.50;;;;;51.07;8.45;101760.91;5053428;28;45433;-58
2022/07/04 10:04:45;;;;;;;;;3.60;2.20;;;;;50.98;9.21;101758.47;5037011;28;45432;-55
2022/07/04 10:07:11;;;;;;;;;2.20;1.40;;;;;50.86;9.76;101770.97;5053027;28;45440;-64
2022/07/04 10:09:36;;;;;;;;;2.50;1.00;;;;;50.83;8.98;101760.44;5053103;28;45437;-58
2022/07/04 10:12:02;;;;;;;;;0.75;0.75;;;;;50.76;9.25;101756.75;5053185;28;45404;-48
2022/07/04 10:14:27;;;;;;;;;2.25;1.00;;;;;50.48;8.44;101761.06;5053464;28;45456;-60
2022/07/04 10:16:54;;;;;;;;;0.75;0.75;;;;;50.26;8.41;101754.47;5053395;28;46161;-57
2022/07/04 10:19:20;;;;;;;;;2.40;0.80;;;;;50.20;9.25;101752.44;5085204;27;45384;-48
2022/07/04 10:21:46;;;;;;;;;1.25;1.25;;;;;50.08;8.87;101745.06;5096292;27;45507;-63
2022/07/04 10:24:11;;;;;;;;;0.80;0.80;;;;;49.97;8.70;101752.66;5096174;27;45403;-58
2022/07/04 10:26:38;;;;;;;;;2.00;1.00;;;;;49.69;9.17;101748.38;5096013;27;45437;-46
2022/07/04 10:29:03;;;;;;;;;0.80;0.80;;;;;49.59;9.39;101747.06;5096031;27;45413;-59
2022/07/04 10:31:31;;;;;;;;;1.75;1.75;;;;;49.41;9.31;101741.25;5095717;27;45461;-55
2022/07/04 10:33:59;;;;;;;;;2.80;1.60;;;;;49.16;9.52;101741.00;5095932;27;45461;-55
2022/07/04 10:36:30;;;;;;;;;2.00;1.00;;;;;48.86;9.85;101745.91;5095699;27;46104;-55
2022/07/04 10:39:00;;;;;;;;;3.40;1.80;;;;;48.58;10.10;101749.16;5095857;27;45365;-54
2022/07/04 10:41:28;;;;;;;;;0.80;0.80;;;;;48.21;10.17;101747.00;5096021;27;45316;-52
2022/07/04 10:43:57;;;;;;;;;3.00;1.40;;;;;47.54;10.34;101750.34;5095736;27;45440;-52
2022/07/04 10:46:28;;;;;;;;;2.00;2.00;;;;;46.67;10.65;101727.28;5095719;27;46491;-50
2022/07/04 10:49:01;;;;;;;;;1.20;1.20;;;;;45.59;10.92;101745.56;5095457;27;45484;-55
2022/07/04 10:51:35;;;;;;;;;2.00;2.00;;;;;43.71;12.19;101747.88;5095880;27;45337;-54
2022/07/04 10:54:02;;;;;;;;;3.40;1.20;;;;;41.96;13.12;101743.97;5095998;27;45323;-49
2022/07/04 10:56:27;;;;;;;;;1.60;1.60;;;;;40.50;13.84;101741.00;5095465;27;46115;-58
2022/07/04 10:58:55;;;;;;;;;1.00;1.00;;;;;39.02;14.30;101736.63;5099171;27;45337;-51
2022/07/04 11:01:20;;;;;;;;;5.60;1.00;;;;;37.76;15.99;101747.31;5099482;27;45401;-48
2022/07/04 11:03:51;;;;;;;;;1.50;0.00;;;;;36.42;17.01;101750.44;5099186;27;45475;-53
2022/07/04 11:06:38;;;;;;;;;1.40;1.00;;;;;35.41;17.77;101743.97;5098936;27;46824;-58
2022/07/04 11:09:12;;;;;;;;;1.00;1.00;;;;;34.52;18.61;101745.94;5098719;27;45354;-50
2022/07/04 11:12:07;;;;;;;;;3.00;3.00;;;;;33.45;19.53;101744.19;5098879;27;45227;-50
2022/07/04 11:14:42;;;;;;;;;0.00;0.00;;;;;32.60;20.37;101744.53;5056210;28;45560;-47
2022/07/04 11:17:09;;;;;;;;;1.60;1.60;;;;;32.21;21.18;101741.31;5055598;28;45416;-60
2022/07/04 11:19:36;;;;;;;;;3.60;2.00;;;;;31.85;20.86;101740.28;5055667;28;45557;-52
2022/07/04 11:22:04;;;;;;;;;2.80;2.00;;;;;31.64;21.89;101737.34;5055877;28;45455;-52
2022/07/04 11:24:29;;;;;;;;;2.00;2.00;;;;;31.46;21.50;101741.34;5055763;28;45380;-50
2022/07/04 11:26:54;;;;;;;;;2.75;1.25;;;;;31.31;22.70;101732.97;5055745;28;46085;-58
2022/07/04 11:29:20;;;;;;;;;1.25;1.25;;;;;31.18;21.80;101738.84;5055606;28;45308;-50
2022/07/04 11:31:48;;;;;;;;;1.75;1.25;;;;;31.00;21.78;101738.13;5055477;28;45434;-58
2022/07/04 11:34:14;;;;;;;;;1.20;1.20;;;;;30.89;22.90;101732.78;5055683;28;45627;-65
2022/07/04 11:36:41;;;;;;;;;2.00;2.00;;;;;30.84;22.78;101730.00;5055308;28;45479;-52
2022/07/04 11:39:13;;;;;;;;;2.80;2.00;;;;;30.75;22.19;101735.13;5055296;28;45866;-58